createdAt,value
2018-09-25T00:01:00.526Z,1030.64
2018-09-25T00:02:00.582Z,1030.63
2018-09-25T00:03:53.568Z,1030.65
2018-09-25T00:04:53.621Z,1030.65
2018-09-25T00:06:46.597Z,1030.67
2018-09-25T00:07:46.656Z,1030.67
2018-09-25T00:09:39.645Z,1030.72
2018-09-25T00:10:39.696Z,1030.73
2018-09-25T00:12:32.671Z,1030.75
2018-09-25T00:13:32.731Z,1030.75
2018-09-25T00:15:25.720Z,1030.74
2018-09-25T00:16:25.770Z,1030.74
2018-09-25T00:18:18.756Z,1030.70
2018-09-25T00:19:18.805Z,1030.69
2018-09-25T00:21:11.783Z,1030.72
2018-09-25T00:22:11.842Z,1030.76
2018-09-25T00:24:04.822Z,1030.80
2018-09-25T00:25:04.879Z,1030.79
2018-09-25T00:26:57.859Z,1030.80
2018-09-25T00:27:57.920Z,1030.79
2018-09-25T00:29:50.908Z,1030.76
2018-09-25T00:30:50.954Z,1030.73
2018-09-25T00:32:43.933Z,1030.74
2018-09-25T00:33:43.991Z,1030.72
2018-09-25T00:35:36.974Z,1030.75
2018-09-25T00:36:37.023Z,1030.75
2018-09-25T00:38:30.022Z,1030.70
2018-09-25T00:39:30.061Z,1030.70
2018-09-25T00:41:23.041Z,1030.72
2018-09-25T00:42:23.105Z,1030.77
2018-09-25T00:44:16.091Z,1030.75
2018-09-25T00:45:16.135Z,1030.74
2018-09-25T00:47:09.220Z,1030.76
2018-09-25T00:48:09.172Z,1030.73
2018-09-25T00:50:02.157Z,1030.77
2018-09-25T00:51:02.209Z,1030.78
2018-09-25T00:52:55.188Z,1030.79
2018-09-25T00:53:55.242Z,1030.74
2018-09-25T00:55:48.235Z,1030.76
2018-09-25T00:56:48.286Z,1030.80
2018-09-25T00:58:41.266Z,1030.80
2018-09-25T00:59:41.323Z,1030.77
2018-09-25T01:01:34.308Z,1030.81
2018-09-25T01:02:34.359Z,1030.81
2018-09-25T01:04:27.344Z,1030.85
2018-09-25T01:05:27.395Z,1030.83
2018-09-25T01:07:20.372Z,1030.82
2018-09-25T01:08:20.433Z,1030.80
2018-09-25T01:10:13.421Z,1030.75
2018-09-25T01:11:13.471Z,1030.78
2018-09-25T01:13:06.452Z,1030.79
2018-09-25T01:14:06.515Z,1030.82
2018-09-25T01:15:59.501Z,1030.83
2018-09-25T01:16:59.553Z,1030.85
2018-09-25T01:18:52.533Z,1030.86
2018-09-25T01:19:52.589Z,1030.90
2018-09-25T01:21:45.585Z,1030.84
2018-09-25T01:22:45.636Z,1030.84
2018-09-25T01:24:38.622Z,1030.81
2018-09-25T01:25:38.672Z,1030.85
2018-09-25T01:27:31.661Z,1030.85
2018-09-25T01:28:31.719Z,1030.87
2018-09-25T01:30:24.708Z,1030.88
2018-09-25T01:31:24.758Z,1030.88
2018-09-25T01:33:17.740Z,1030.88
2018-09-25T01:34:17.798Z,1030.89
2018-09-25T01:36:10.788Z,1030.91
2018-09-25T01:37:10.840Z,1030.93
2018-09-25T01:39:03.824Z,1030.97
2018-09-25T01:40:03.888Z,1030.94
2018-09-25T01:41:56.883Z,1030.92
2018-09-25T01:42:56.928Z,1030.97
2018-09-25T01:44:49.908Z,1030.92
2018-09-25T01:45:49.964Z,1030.94
2018-09-25T01:47:42.956Z,1030.93
2018-09-25T01:48:43.007Z,1030.94
2018-09-25T01:50:35.996Z,1030.94
2018-09-25T01:51:36.045Z,1030.94
2018-09-25T01:53:29.030Z,1030.94
2018-09-25T01:54:29.089Z,1030.91
2018-09-25T01:56:22.079Z,1030.94
2018-09-25T01:57:22.130Z,1030.93
2018-09-25T01:59:15.116Z,1030.93
2018-09-25T02:00:15.175Z,1030.97
2018-09-25T02:02:08.159Z,1030.92
2018-09-25T02:03:08.208Z,1030.89
2018-09-25T02:05:01.196Z,1030.95
2018-09-25T02:06:01.250Z,1030.93
2018-09-25T02:07:54.247Z,1030.93
2018-09-25T02:08:54.295Z,1030.93
2018-09-25T02:10:47.291Z,1030.95
2018-09-25T02:11:47.332Z,1030.96
2018-09-25T02:13:40.314Z,1030.97
2018-09-25T02:14:40.370Z,1031.04
2018-09-25T02:16:33.359Z,1031.02
2018-09-25T02:17:33.407Z,1031.07
2018-09-25T02:19:26.387Z,1031.11
2018-09-25T02:20:26.446Z,1031.09
2018-09-25T02:22:19.434Z,1031.11
2018-09-25T02:23:19.486Z,1031.10
2018-09-25T02:25:12.474Z,1031.15
2018-09-25T02:26:12.529Z,1031.13
2018-09-25T02:28:05.521Z,1031.09
2018-09-25T02:29:05.567Z,1031.08
2018-09-25T02:30:58.550Z,1031.09
2018-09-25T02:31:58.604Z,1031.07
2018-09-25T02:33:51.590Z,1031.06
2018-09-25T02:34:51.642Z,1031.04
2018-09-25T02:36:44.636Z,1031.01
2018-09-25T02:37:44.686Z,1031.07
2018-09-25T02:39:37.668Z,1031.10
2018-09-25T02:40:37.728Z,1031.15
2018-09-25T02:42:30.714Z,1031.13
2018-09-25T02:43:30.765Z,1031.13
2018-09-25T02:45:23.752Z,1031.11
2018-09-25T02:46:23.810Z,1031.08
2018-09-25T02:48:16.797Z,1031.14
2018-09-25T02:49:16.850Z,1031.12
2018-09-25T02:51:09.825Z,1031.12
2018-09-25T02:52:09.891Z,1031.08
2018-09-25T02:54:02.892Z,1031.07
2018-09-25T02:55:02.928Z,1031.07
2018-09-25T02:56:55.917Z,1031.07
2018-09-25T02:57:55.967Z,1031.12
2018-09-25T02:59:48.947Z,1031.10
2018-09-25T03:00:49.007Z,1031.17
2018-09-25T03:02:41.996Z,1031.13
2018-09-25T03:03:42.042Z,1031.11
2018-09-25T03:05:35.023Z,1031.13
2018-09-25T03:06:35.082Z,1031.18
2018-09-25T03:08:28.069Z,1031.20
2018-09-25T03:09:28.120Z,1031.21
2018-09-25T03:11:21.102Z,1031.15
2018-09-25T03:12:21.162Z,1031.14
2018-09-25T03:14:14.151Z,1031.16
2018-09-25T03:15:14.212Z,1031.23
2018-09-25T03:17:07.179Z,1031.24
2018-09-25T03:18:07.237Z,1031.22
2018-09-25T03:20:00.223Z,1031.18
2018-09-25T03:21:00.302Z,1031.19
2018-09-25T03:22:53.440Z,1031.14
2018-09-25T03:23:53.411Z,1031.12
2018-09-25T03:25:46.291Z,1031.11
2018-09-25T03:26:46.349Z,1031.09
2018-09-25T03:28:39.340Z,1031.10
2018-09-25T03:29:39.389Z,1031.06
2018-09-25T03:31:32.368Z,1031.08
2018-09-25T03:32:32.426Z,1031.07
2018-09-25T03:34:25.412Z,1031.10
2018-09-25T03:35:25.463Z,1031.12
2018-09-25T03:37:18.441Z,1031.12
2018-09-25T03:38:18.500Z,1031.10
2018-09-25T03:40:11.485Z,1031.10
2018-09-25T03:41:11.536Z,1031.07
2018-09-25T03:43:04.532Z,1031.05
2018-09-25T03:44:04.578Z,1031.05
2018-09-25T03:45:57.559Z,1031.03
2018-09-25T03:46:57.615Z,1031.07
2018-09-25T03:48:50.605Z,1031.02
2018-09-25T03:49:50.650Z,1031.02
2018-09-25T03:51:43.630Z,1031.04
2018-09-25T03:52:43.687Z,1031.04
2018-09-25T03:54:36.673Z,1031.01
2018-09-25T03:55:36.725Z,1031.00
2018-09-25T03:57:29.702Z,1031.03
2018-09-25T03:58:29.754Z,1031.06
2018-09-25T04:00:24.263Z,1031.11
2018-09-25T04:01:24.305Z,1031.08
2018-09-25T04:03:17.285Z,1031.04
2018-09-25T04:04:17.342Z,1031.06
2018-09-25T04:06:10.424Z,1031.11
2018-09-25T04:07:10.384Z,1031.11
2018-09-25T04:09:03.374Z,1031.14
2018-09-25T04:10:03.425Z,1031.16
2018-09-25T04:11:56.403Z,1031.16
2018-09-25T04:12:56.462Z,1031.18
2018-09-25T04:14:49.451Z,1031.21
2018-09-25T04:15:49.498Z,1031.22
2018-09-25T04:17:42.476Z,1031.25
2018-09-25T04:18:42.533Z,1031.22
2018-09-25T04:20:35.516Z,1031.26
2018-09-25T04:21:35.567Z,1031.30
2018-09-25T04:23:28.548Z,1031.32
2018-09-25T04:24:28.606Z,1031.34
2018-09-25T04:26:21.596Z,1031.34
2018-09-25T04:27:21.647Z,1031.33
2018-09-25T04:29:14.636Z,1031.36
2018-09-25T04:30:14.684Z,1031.40
2018-09-25T04:32:07.672Z,1031.38
2018-09-25T04:33:07.714Z,1031.42
2018-09-25T04:35:00.724Z,1031.45
2018-09-25T04:36:00.769Z,1031.48
2018-09-25T04:37:53.731Z,1031.46
2018-09-25T04:38:53.789Z,1031.51
2018-09-25T04:40:46.802Z,1031.52
2018-09-25T04:41:46.849Z,1031.50
2018-09-25T04:43:39.844Z,1031.48
2018-09-25T04:44:39.894Z,1031.46
2018-09-25T04:46:32.882Z,1031.49
2018-09-25T04:47:32.926Z,1031.59
2018-09-25T04:49:25.920Z,1031.54
2018-09-25T04:50:25.976Z,1031.54
2018-09-25T04:52:18.976Z,1031.54
2018-09-25T04:53:19.014Z,1031.58
2018-09-25T04:55:12.545Z,1031.51
2018-09-25T04:56:12.052Z,1031.54
2018-09-25T04:58:05.040Z,1031.50
2018-09-25T04:59:05.088Z,1031.49
2018-09-25T05:00:58.613Z,1031.45
2018-09-25T05:01:58.633Z,1031.50
2018-09-25T05:03:51.634Z,1031.50
2018-09-25T05:04:51.669Z,1031.55
2018-09-25T05:06:44.743Z,1031.54
2018-09-25T05:07:44.707Z,1031.54
2018-09-25T05:09:37.689Z,1031.58
2018-09-25T05:10:37.749Z,1031.57
2018-09-25T05:12:30.734Z,1031.59
2018-09-25T05:13:30.782Z,1031.57
2018-09-25T05:15:23.772Z,1031.67
2018-09-25T05:16:23.824Z,1031.66
2018-09-25T05:18:16.880Z,1031.68
2018-09-25T05:19:16.860Z,1031.68
2018-09-25T05:21:09.843Z,1031.70
2018-09-25T05:22:09.894Z,1031.72
2018-09-25T05:24:02.939Z,1031.76
2018-09-25T05:25:02.936Z,1031.74
2018-09-25T05:26:55.941Z,1031.73
2018-09-25T05:27:55.971Z,1031.76
2018-09-25T05:29:48.960Z,1031.70
2018-09-25T05:30:49.014Z,1031.76
2018-09-25T05:32:42.005Z,1031.75
2018-09-25T05:33:42.051Z,1031.74
2018-09-25T05:35:35.052Z,1031.74
2018-09-25T05:36:35.088Z,1031.77
2018-09-25T05:38:28.072Z,1031.79
2018-09-25T05:39:28.128Z,1031.83
2018-09-25T05:41:21.115Z,1031.80
2018-09-25T05:42:21.169Z,1031.79
2018-09-25T05:44:14.163Z,1031.83
2018-09-25T05:45:14.204Z,1031.80
2018-09-25T05:47:07.193Z,1031.75
2018-09-25T05:48:07.241Z,1031.80
2018-09-25T05:50:00.222Z,1031.83
2018-09-25T05:51:00.280Z,1031.83
2018-09-25T05:52:53.270Z,1031.87
2018-09-25T05:53:53.318Z,1031.86
2018-09-25T05:55:46.300Z,1031.91
2018-09-25T05:56:46.360Z,1031.87
2018-09-25T05:58:39.340Z,1031.89
2018-09-25T05:59:39.393Z,1031.93
2018-09-25T06:01:32.384Z,1031.94
2018-09-25T06:02:32.434Z,1031.93
2018-09-25T06:04:25.412Z,1031.94
2018-09-25T06:05:25.465Z,1031.94
2018-09-25T06:07:18.457Z,1031.98
2018-09-25T06:08:18.507Z,1031.97
2018-09-25T06:10:11.489Z,1032.01
2018-09-25T06:11:11.548Z,1032.00
2018-09-25T06:13:04.558Z,1032.04
2018-09-25T06:14:04.587Z,1032.03
2018-09-25T06:15:57.566Z,1032.04
2018-09-25T06:16:57.621Z,1032.08
2018-09-25T06:18:50.705Z,1032.09
2018-09-25T06:19:50.660Z,1032.13
2018-09-25T06:21:43.656Z,1032.16
2018-09-25T06:22:43.700Z,1032.12
2018-09-25T06:24:36.679Z,1032.17
2018-09-25T06:25:36.736Z,1032.16
2018-09-25T06:27:29.729Z,1032.19
2018-09-25T06:28:29.780Z,1032.19
2018-09-25T06:30:22.777Z,1032.18
2018-09-25T06:31:22.819Z,1032.18
2018-09-25T06:33:15.825Z,1032.20
2018-09-25T06:34:15.858Z,1032.23
2018-09-25T06:36:08.854Z,1032.30
2018-09-25T06:37:08.906Z,1032.32
2018-09-25T06:39:01.899Z,1032.35
2018-09-25T06:40:01.937Z,1032.36
2018-09-25T06:41:54.944Z,1032.38
2018-09-25T06:42:54.979Z,1032.38
2018-09-25T06:44:47.984Z,1032.42
2018-09-25T06:45:48.023Z,1032.43
2018-09-25T06:47:41.012Z,1032.48
2018-09-25T06:48:41.058Z,1032.52
2018-09-25T06:50:34.043Z,1032.54
2018-09-25T06:51:34.101Z,1032.53
2018-09-25T06:53:27.087Z,1032.60
2018-09-25T06:54:27.135Z,1032.63
2018-09-25T06:56:20.142Z,1032.71
2018-09-25T06:57:20.177Z,1032.70
2018-09-25T06:59:13.189Z,1032.70
2018-09-25T07:00:13.212Z,1032.76
2018-09-25T07:02:06.199Z,1032.86
2018-09-25T07:03:06.257Z,1032.83
2018-09-25T07:04:59.253Z,1032.96
2018-09-25T07:05:59.299Z,1033.05
2018-09-25T07:07:52.311Z,1033.10
2018-09-25T07:08:52.358Z,1033.10
2018-09-25T07:10:45.515Z,1033.30
2018-09-25T07:11:45.397Z,1033.48
2018-09-25T07:13:38.404Z,1033.55
2018-09-25T07:14:38.446Z,1033.55
2018-09-25T07:16:31.457Z,1033.88
2018-09-25T07:17:31.547Z,1034.03
2018-09-25T07:19:24.502Z,1034.32
2018-09-25T07:20:24.549Z,1034.35
2018-09-25T07:22:17.542Z,1034.25
2018-09-25T07:23:17.605Z,1034.23
2018-09-25T07:25:10.704Z,1034.53
2018-09-25T07:26:10.662Z,1034.96
2018-09-25T07:28:03.681Z,1035.23
2018-09-25T07:29:03.716Z,1034.88
2018-09-25T07:30:56.744Z,1034.74
2018-09-25T07:31:56.777Z,1034.59
2018-09-25T07:33:49.787Z,1034.40
2018-09-25T07:34:49.833Z,1034.14
2018-09-25T07:36:42.847Z,1033.70
2018-09-25T07:37:42.890Z,1033.62
2018-09-25T07:39:35.944Z,1033.50
2018-09-25T07:40:35.944Z,1033.48
2018-09-25T07:42:28.943Z,1033.44
2018-09-25T07:43:29.008Z,1033.42
2018-09-25T07:45:23.020Z,1033.29
2018-09-25T07:46:23.077Z,1033.29
2018-09-25T07:48:16.126Z,1033.34
2018-09-25T07:49:16.142Z,1033.29
2018-09-25T07:51:09.144Z,1033.37
2018-09-25T07:52:09.204Z,1033.40
2018-09-25T07:54:02.233Z,1033.45
2018-09-25T07:55:02.267Z,1033.48
2018-09-25T07:56:55.261Z,1033.48
2018-09-25T07:57:55.324Z,1033.50
2018-09-25T07:59:48.343Z,1033.51
2018-09-25T08:00:48.387Z,1033.53
2018-09-25T08:02:41.397Z,1033.50
2018-09-25T08:03:41.463Z,1033.48
2018-09-25T08:05:34.447Z,1033.49
2018-09-25T08:06:34.507Z,1033.50
2018-09-25T08:08:27.533Z,1033.51
2018-09-25T08:09:27.576Z,1033.47
2018-09-25T08:11:20.611Z,1033.54
2018-09-25T08:12:20.653Z,1033.53
2018-09-25T08:14:13.652Z,1033.53
2018-09-25T08:15:13.725Z,1033.55
2018-09-25T08:17:06.729Z,1033.53
2018-09-25T08:18:06.785Z,1033.57
2018-09-25T08:19:59.792Z,1033.59
2018-09-25T08:20:59.846Z,1033.63
2018-09-25T08:22:52.853Z,1033.63
2018-09-25T08:23:52.913Z,1033.63
2018-09-25T08:25:45.922Z,1033.66
2018-09-25T08:26:45.982Z,1033.63
2018-09-25T08:28:38.982Z,1033.68
2018-09-25T08:29:39.117Z,1033.67
2018-09-25T08:31:32.084Z,1033.67
2018-09-25T08:32:32.112Z,1033.67
2018-09-25T08:34:25.116Z,1033.71
2018-09-25T08:35:25.179Z,1033.71
2018-09-25T08:37:18.194Z,1033.76
2018-09-25T08:38:18.252Z,1033.77
2018-09-25T08:40:11.275Z,1033.79
2018-09-25T08:41:11.321Z,1033.77
2018-09-25T08:43:04.325Z,1033.78
2018-09-25T08:44:04.388Z,1033.79
2018-09-25T08:45:57.470Z,1033.78
2018-09-25T08:46:57.459Z,1033.78
2018-09-25T08:48:50.505Z,1033.75
2018-09-25T08:49:50.528Z,1033.73
2018-09-25T08:51:43.537Z,1033.70
2018-09-25T08:52:43.603Z,1033.70
2018-09-25T08:54:36.598Z,1033.72
2018-09-25T08:55:36.660Z,1033.75
2018-09-25T08:57:29.668Z,1033.68
2018-09-25T08:58:29.727Z,1033.64
2018-09-25T09:00:23.259Z,1033.62
2018-09-25T09:01:23.296Z,1033.62
2018-09-25T09:03:16.295Z,1033.63
2018-09-25T09:04:16.357Z,1033.58
2018-09-25T09:06:09.356Z,1033.60
2018-09-25T09:07:09.411Z,1033.54
2018-09-25T09:09:02.443Z,1033.60
2018-09-25T09:10:02.469Z,1033.58
2018-09-25T09:11:55.500Z,1033.60
2018-09-25T09:12:55.546Z,1033.64
2018-09-25T09:14:48.547Z,1033.68
2018-09-25T09:15:48.598Z,1033.65
2018-09-25T09:17:41.602Z,1033.64
2018-09-25T09:18:41.657Z,1033.65
2018-09-25T09:20:34.663Z,1033.65
2018-09-25T09:21:34.706Z,1033.62
2018-09-25T09:23:27.704Z,1033.65
2018-09-25T09:24:27.758Z,1033.69
2018-09-25T09:26:20.780Z,1033.62
2018-09-25T09:27:20.814Z,1033.61
2018-09-25T09:29:13.803Z,1033.65
2018-09-25T09:30:13.866Z,1033.64
2018-09-25T09:32:06.863Z,1033.63
2018-09-25T09:33:06.915Z,1033.63
2018-09-25T09:34:59.906Z,1033.63
2018-09-25T09:35:59.968Z,1033.63
2018-09-25T09:37:52.967Z,1033.65
2018-09-25T09:38:53.021Z,1033.64
2018-09-25T09:40:46.010Z,1033.62
2018-09-25T09:41:46.241Z,1033.65
2018-09-25T09:43:39.100Z,1033.63
2018-09-25T09:44:39.125Z,1033.60
2018-09-25T09:46:32.135Z,1033.64
2018-09-25T09:47:32.175Z,1033.63
2018-09-25T09:49:25.183Z,1033.62
2018-09-25T09:50:25.262Z,1033.61
2018-09-25T09:52:18.233Z,1033.60
2018-09-25T09:53:18.286Z,1033.60
2018-09-25T09:55:11.336Z,1033.59
2018-09-25T09:56:11.375Z,1033.59
2018-09-25T09:58:04.345Z,1033.58
2018-09-25T09:59:04.401Z,1033.64
2018-09-25T10:00:57.924Z,1033.61
2018-09-25T10:01:57.979Z,1033.61
2018-09-25T10:03:50.975Z,1033.64
2018-09-25T10:04:51.030Z,1033.62
2018-09-25T10:06:44.059Z,1033.64
2018-09-25T10:07:44.087Z,1033.65
2018-09-25T10:09:37.088Z,1033.66
2018-09-25T10:10:37.143Z,1033.65
2018-09-25T10:12:30.172Z,1033.65
2018-09-25T10:13:30.190Z,1033.62
2018-09-25T10:15:23.238Z,1033.73
2018-09-25T10:16:23.248Z,1033.71
2018-09-25T10:18:16.256Z,1033.74
2018-09-25T10:19:16.317Z,1033.78
2018-09-25T10:21:09.325Z,1033.79
2018-09-25T10:22:09.372Z,1033.78
2018-09-25T10:24:02.374Z,1033.77
2018-09-25T10:25:02.432Z,1033.81
2018-09-25T10:26:55.437Z,1033.78
2018-09-25T10:27:55.479Z,1033.76
2018-09-25T10:29:48.479Z,1033.77
2018-09-25T10:30:48.537Z,1033.75
2018-09-25T10:32:41.534Z,1033.77
2018-09-25T10:33:41.592Z,1033.78
2018-09-25T10:35:34.601Z,1033.73
2018-09-25T10:36:34.653Z,1033.69
2018-09-25T10:38:27.712Z,1033.75
2018-09-25T10:39:27.717Z,1033.75
2018-09-25T10:41:20.772Z,1033.72
2018-09-25T10:42:20.836Z,1033.73
2018-09-25T10:44:13.840Z,1033.71
2018-09-25T10:45:13.887Z,1033.69
2018-09-25T10:47:06.892Z,1033.71
2018-09-25T10:48:06.949Z,1033.72
2018-09-25T10:50:00.042Z,1033.72
2018-09-25T10:51:00.004Z,1033.75
2018-09-25T10:52:52.991Z,1033.70
2018-09-25T10:53:53.052Z,1033.68
2018-09-25T10:55:46.107Z,1033.71
2018-09-25T10:56:46.121Z,1033.69
2018-09-25T10:58:39.097Z,1033.69
2018-09-25T10:59:39.149Z,1033.69
2018-09-25T11:01:32.166Z,1033.67
2018-09-25T11:02:32.229Z,1033.71
2018-09-25T11:04:25.226Z,1033.73
2018-09-25T11:05:25.285Z,1033.75
2018-09-25T11:07:18.313Z,1033.70
2018-09-25T11:08:18.338Z,1033.68
2018-09-25T11:10:11.391Z,1033.67
2018-09-25T11:11:11.385Z,1033.72
2018-09-25T11:13:04.397Z,1033.77
2018-09-25T11:14:04.439Z,1033.75
2018-09-25T11:15:57.434Z,1033.75
2018-09-25T11:16:57.488Z,1033.80
2018-09-25T11:18:50.485Z,1033.74
2018-09-25T11:19:50.545Z,1033.74
2018-09-25T11:21:43.542Z,1033.77
2018-09-25T11:22:43.601Z,1033.73
2018-09-25T11:24:36.598Z,1033.71
2018-09-25T11:25:36.704Z,1033.71
2018-09-25T11:27:29.644Z,1033.73
2018-09-25T11:28:29.757Z,1033.74
2018-09-25T11:30:22.704Z,1033.70
2018-09-25T11:31:22.753Z,1033.67
2018-09-25T11:33:15.801Z,1033.63
2018-09-25T11:34:15.806Z,1033.59
2018-09-25T11:36:08.832Z,1033.58
2018-09-25T11:37:08.857Z,1033.56
2018-09-25T11:39:01.869Z,1033.53
2018-09-25T11:40:01.907Z,1033.51
2018-09-25T11:41:54.907Z,1033.51
2018-09-25T11:42:54.969Z,1033.49
2018-09-25T11:44:47.962Z,1033.49
2018-09-25T11:45:48.052Z,1033.44
2018-09-25T11:47:41.003Z,1033.47
2018-09-25T11:48:41.064Z,1033.47
2018-09-25T11:50:34.071Z,1033.46
2018-09-25T11:51:34.115Z,1033.46
2018-09-25T11:53:27.111Z,1033.48
2018-09-25T11:54:27.163Z,1033.47
2018-09-25T11:56:20.225Z,1033.55
2018-09-25T11:57:20.226Z,1033.54
2018-09-25T11:59:13.230Z,1033.60
2018-09-25T12:00:13.291Z,1033.53
2018-09-25T12:02:06.290Z,1033.53
2018-09-25T12:03:06.339Z,1033.45
2018-09-25T12:04:59.445Z,1033.42
2018-09-25T12:05:59.398Z,1033.39
2018-09-25T12:07:52.398Z,1033.35
2018-09-25T12:08:52.447Z,1033.32
2018-09-25T12:10:45.444Z,1033.31
2018-09-25T12:11:45.498Z,1033.36
2018-09-25T12:13:38.503Z,1033.40
2018-09-25T12:14:38.546Z,1033.39
2018-09-25T12:16:31.545Z,1033.32
2018-09-25T12:17:31.646Z,1033.33
2018-09-25T12:19:24.590Z,1033.28
2018-09-25T12:20:24.653Z,1033.31
2018-09-25T12:22:17.647Z,1033.28
2018-09-25T12:23:17.713Z,1033.22
2018-09-25T12:25:10.693Z,1033.17
2018-09-25T12:26:10.751Z,1033.16
2018-09-25T12:28:03.754Z,1033.11
2018-09-25T12:29:03.810Z,1033.15
2018-09-25T12:30:56.805Z,1033.15
2018-09-25T12:31:56.861Z,1033.14
2018-09-25T12:33:49.889Z,1033.14
2018-09-25T12:34:49.911Z,1033.13
2018-09-25T12:36:42.910Z,1033.06
2018-09-25T12:37:42.965Z,1033.02
2018-09-25T12:39:35.957Z,1032.95
2018-09-25T12:40:36.016Z,1032.97
2018-09-25T12:42:29.021Z,1032.93
2018-09-25T12:43:29.076Z,1032.95
2018-09-25T12:45:22.073Z,1032.92
2018-09-25T12:46:22.135Z,1032.91
2018-09-25T12:48:15.135Z,1032.84
2018-09-25T12:49:15.193Z,1032.84
2018-09-25T12:51:08.196Z,1032.79
2018-09-25T12:52:08.249Z,1032.77
2018-09-25T12:54:01.239Z,1032.74
2018-09-25T12:55:01.305Z,1032.75
2018-09-25T12:56:54.303Z,1032.74
2018-09-25T12:57:54.354Z,1032.77
2018-09-25T12:59:47.365Z,1032.76
2018-09-25T13:00:47.404Z,1032.79
2018-09-25T13:02:40.404Z,1032.77
2018-09-25T13:03:40.465Z,1032.76
2018-09-25T13:05:33.442Z,1032.70
2018-09-25T13:06:33.503Z,1032.68
2018-09-25T13:08:26.506Z,1032.74
2018-09-25T13:09:26.563Z,1032.74
2018-09-25T13:11:19.558Z,1032.73
2018-09-25T13:12:19.618Z,1032.75
2018-09-25T13:14:12.621Z,1032.69
2018-09-25T13:15:12.680Z,1032.66
2018-09-25T13:17:05.667Z,1032.67
2018-09-25T13:18:05.726Z,1032.69
2018-09-25T13:19:58.714Z,1032.71
2018-09-25T13:20:58.773Z,1032.71
2018-09-25T13:22:51.790Z,1032.76
2018-09-25T13:23:51.864Z,1032.72
2018-09-25T13:25:44.821Z,1032.74
2018-09-25T13:26:44.883Z,1032.75
2018-09-25T13:28:37.880Z,1032.75
2018-09-25T13:29:37.938Z,1032.79
2018-09-25T13:31:30.934Z,1032.69
2018-09-25T13:32:30.995Z,1032.73
2018-09-25T13:34:23.994Z,1032.71
2018-09-25T13:35:24.047Z,1032.70
2018-09-25T13:37:17.045Z,1032.71
2018-09-25T13:38:17.104Z,1032.69
2018-09-25T13:40:10.123Z,1032.65
2018-09-25T13:41:10.178Z,1032.57
2018-09-25T13:43:03.154Z,1032.60
2018-09-25T13:44:03.264Z,1032.60
2018-09-25T13:45:56.200Z,1032.60
2018-09-25T13:46:56.261Z,1032.57
2018-09-25T13:48:49.267Z,1032.53
2018-09-25T13:49:49.312Z,1032.55
2018-09-25T13:51:42.308Z,1032.53
2018-09-25T13:52:42.362Z,1032.56
2018-09-25T13:54:35.399Z,1032.55
2018-09-25T13:55:35.514Z,1032.59
2018-09-25T13:57:28.448Z,1032.59
2018-09-25T13:58:28.512Z,1032.54
2018-09-25T14:00:22.029Z,1032.49
2018-09-25T14:01:22.079Z,1032.49
2018-09-25T14:03:15.081Z,1032.51
2018-09-25T14:04:15.139Z,1032.45
2018-09-25T14:06:10.491Z,1032.44
2018-09-25T14:07:08.985Z,1032.42
2018-09-25T14:09:02.831Z,1032.32
2018-09-25T14:10:02.592Z,1032.30
2018-09-25T14:11:55.949Z,1032.32
2018-09-25T14:12:55.986Z,1032.25
2018-09-25T14:14:48.491Z,1032.20
2018-09-25T14:17:42.337Z,1032.17
2018-09-25T14:18:45.821Z,1032.16
2018-09-25T14:20:37.629Z,1032.10
2018-09-25T14:21:35.008Z,1032.08
2018-09-25T14:23:32.209Z,1032.06
2018-09-25T14:24:28.216Z,1032.08
2018-09-25T14:26:29.528Z,1032.01
2018-09-25T14:27:20.840Z,1032.03
2018-09-25T14:29:14.704Z,1031.97
2018-09-25T14:30:14.165Z,1032.04
2018-09-25T14:32:07.220Z,1032.02
2018-09-25T14:33:06.882Z,1032.05
2018-09-25T14:35:00.004Z,1032.02
2018-09-25T14:36:00.026Z,1032.00
2018-09-25T14:38:07.298Z,1032.03
2018-09-25T14:38:53.076Z,1032.03
2018-09-25T14:40:47.765Z,1032.00
2018-09-25T14:41:46.268Z,1032.03
2018-09-25T14:43:39.195Z,1031.96
2018-09-25T14:44:39.333Z,1031.94
2018-09-25T14:46:32.475Z,1031.89
2018-09-25T14:47:32.537Z,1031.88
2018-09-25T14:49:25.458Z,1031.90
2018-09-25T14:50:25.553Z,1031.91
2018-09-25T14:52:19.636Z,1031.92
2018-09-25T14:53:19.686Z,1031.88
2018-09-25T14:55:11.788Z,1031.88
2018-09-25T14:56:11.697Z,1031.85
2018-09-25T14:58:04.763Z,1031.87
2018-09-25T14:59:04.695Z,1031.82
2018-09-25T15:01:00.957Z,1031.88
2018-09-25T15:02:00.428Z,1031.79
2018-09-25T15:03:54.233Z,1031.81
2018-09-25T15:04:53.304Z,1031.75
2018-09-25T15:06:47.018Z,1031.77
2018-09-25T15:07:46.748Z,1031.75
2018-09-25T15:09:39.517Z,1031.73
2018-09-25T15:10:39.698Z,1031.66
2018-09-25T15:12:33.629Z,1031.66
2018-09-25T15:13:33.605Z,1031.63
2018-09-25T15:15:27.830Z,1031.67
2018-09-25T15:16:25.714Z,1031.67
2018-09-25T15:18:18.679Z,1031.58
2018-09-25T15:19:19.895Z,1031.62
2018-09-25T15:21:12.649Z,1031.62
2018-09-25T15:22:13.185Z,1031.62
2018-09-25T15:24:05.875Z,1031.63
2018-09-25T15:25:05.967Z,1031.62
2018-09-25T15:26:59.010Z,1031.61
2018-09-25T15:27:58.761Z,1031.62
2018-09-25T15:29:54.846Z,1031.58
2018-09-25T15:30:52.211Z,1031.56
2018-09-25T15:32:45.027Z,1031.56
2018-09-25T15:33:45.768Z,1031.51
2018-09-25T15:35:39.028Z,1031.59
2018-09-25T15:36:37.927Z,1031.60
2018-09-25T15:38:30.920Z,1031.61
2018-09-25T15:39:30.986Z,1031.60
2018-09-25T15:41:23.995Z,1031.60
2018-09-25T15:42:24.019Z,1031.60
2018-09-25T15:44:17.011Z,1031.63
2018-09-25T15:45:17.073Z,1031.69
2018-09-25T15:47:10.072Z,1031.69
2018-09-25T15:48:10.213Z,1031.69
2018-09-25T15:50:03.128Z,1031.67
2018-09-25T15:51:03.188Z,1031.68
2018-09-25T15:52:56.185Z,1031.68
2018-09-25T15:53:56.238Z,1031.70
2018-09-25T15:55:49.235Z,1031.70
2018-09-25T15:56:49.296Z,1031.67
2018-09-25T15:58:42.295Z,1031.72
2018-09-25T15:59:42.346Z,1031.68
2018-09-25T16:01:35.344Z,1031.70
2018-09-25T16:02:35.396Z,1031.67
2018-09-25T16:04:28.386Z,1031.73
2018-09-25T16:05:28.447Z,1031.71
2018-09-25T16:07:21.486Z,1031.71
2018-09-25T16:08:21.505Z,1031.68
2018-09-25T16:10:14.494Z,1031.61
2018-09-25T16:11:14.554Z,1031.68
2018-09-25T16:13:07.549Z,1031.73
2018-09-25T16:14:07.636Z,1031.73
2018-09-25T16:16:00.620Z,1031.71
2018-09-25T16:17:00.650Z,1031.68
2018-09-25T16:18:53.645Z,1031.76
2018-09-25T16:19:53.697Z,1031.78
2018-09-25T16:21:46.702Z,1031.74
2018-09-25T16:22:46.753Z,1031.78
2018-09-25T16:24:39.759Z,1031.75
2018-09-25T16:25:39.813Z,1031.73
2018-09-25T16:27:32.811Z,1031.71
2018-09-25T16:28:32.862Z,1031.71
2018-09-25T16:30:25.864Z,1031.71
2018-09-25T16:31:25.926Z,1031.75
2018-09-25T16:33:18.930Z,1031.75
2018-09-25T16:34:18.973Z,1031.77
2018-09-25T16:36:11.972Z,1031.77
2018-09-25T16:37:12.024Z,1031.77
2018-09-25T16:39:05.039Z,1031.75
2018-09-25T16:40:05.082Z,1031.75
2018-09-25T16:41:58.068Z,1031.74
2018-09-25T16:42:58.135Z,1031.75
2018-09-25T16:44:51.123Z,1031.70
2018-09-25T16:45:51.175Z,1031.73
2018-09-25T16:47:44.172Z,1031.72
2018-09-25T16:48:44.243Z,1031.71
2018-09-25T16:50:37.221Z,1031.75
2018-09-25T16:51:37.277Z,1031.75
2018-09-25T16:53:30.285Z,1031.80
2018-09-25T16:54:30.336Z,1031.78
2018-09-25T16:56:23.326Z,1031.78
2018-09-25T16:57:23.386Z,1031.84
2018-09-25T16:59:16.384Z,1031.77
2018-09-25T17:00:16.430Z,1031.78
2018-09-25T17:02:09.416Z,1031.80
2018-09-25T17:03:09.475Z,1031.80
2018-09-25T17:05:02.474Z,1031.83
2018-09-25T17:06:02.595Z,1031.84
2018-09-25T17:07:55.536Z,1031.87
2018-09-25T17:08:55.579Z,1031.89
2018-09-25T17:10:48.564Z,1031.85
2018-09-25T17:11:48.624Z,1031.85
2018-09-25T17:13:42.638Z,1031.88
2018-09-25T17:14:41.718Z,1031.92
2018-09-25T17:16:34.705Z,1031.94
2018-09-25T17:17:34.766Z,1031.91
2018-09-25T17:19:27.759Z,1031.93
2018-09-25T17:20:27.827Z,1031.90
2018-09-25T17:22:20.806Z,1031.81
2018-09-25T17:23:20.858Z,1031.78
2018-09-25T17:25:13.859Z,1031.73
2018-09-25T17:26:13.912Z,1031.69
2018-09-25T17:28:06.907Z,1031.68